Laredo International Airport
KLRD : now visible

Airfield :











YOU CAN JOIN US ON...

 
LOGIN :

Register | Disclaimer

   EN    FR    IT 

 









Legend :    VFR   Marginal VFR   IFR   Intensive IFR   Very Intensive IFR
Visi :
Ceiling :
>= 8 km
>= 3000ft
5 to 8 km
1000 to 3000 ft
1500m to 5 km
500 to 1000 ft
800 to 1500m
200 to 500 ft
< 800m
< 200 ft
Symbols :   Thunderstorms  Fog  Heavy snow  Heavy precipitations  Wind > 20 kt






- Airport Elevation : 508 ft
- IATA code : LRD


KLRD - Laredo International

CURRENT METAR :
  • 080556Z AUTO 33014KT 10SM OVC025 18/11 A2994 RMK AO2 SLP138 T01830106 10267 20183 402830183 51014

EXPIRED METARs :
  • 080525Z 33008KT 10SM BKN027 19/11 A2994 RMK AO2
  • 080456Z 32010KT 10SM BKN075 19/11 A2994 RMK AO2 SLP137 T01890106
  • 080356Z 32015KT 10SM OVC034 21/12 A2994 RMK AO2 SLP137 T02060117

TAF KLRD
Valid from the 08 at 06:00 until the 09 at 06:00 UTC


080533Z 0806/0906 33012KT P6SM VCSH OVC025
TEMPO 0806/0810 32018G25KT -RA OVC012
FM081000 32015G25KT P6SM VCSH OVC020
FM081600 33019G27KT P6SM BKN050
FM082100 33012G20KT P6SM SCT050
FM082300 VRB06KT P6SM FEW250
KZHU FIR / North America



MET'MAP, your aeronautical weather chart ! - Copyright ORBIFLY December 2007 - Disclaimer

ORBIFLY MET'MAP TEAM :

Programming & Development : Alexandra Zaïnal
Original concept : Baudouin d'Aumeries
Technical & hardware support : Manuel Goepfert
Assistance : Marc-Olivier Méhu




SOURCES & CREDITS :

   NOAA       Earth
Advisory